createdAt,value
2022-08-28T00:00:12.548Z,5.40
2022-08-28T00:02:39.177Z,5.90
2022-08-28T00:05:07.500Z,5.37
2022-08-28T00:07:34.849Z,6.37
2022-08-28T00:10:01.846Z,5.70
2022-08-28T00:12:28.515Z,5.10
2022-08-28T00:14:55.087Z,4.53
2022-08-28T00:17:21.625Z,5.57
2022-08-28T00:19:48.229Z,4.93
2022-08-28T00:22:14.886Z,5.43
2022-08-28T00:24:44.554Z,5.20
2022-08-28T00:27:29.945Z,5.43
2022-08-28T00:29:56.544Z,4.93
2022-08-28T00:32:25.078Z,4.93
2022-08-28T00:34:52.091Z,5.53
2022-08-28T00:37:18.829Z,5.23
2022-08-28T00:39:46.363Z,4.73
2022-08-28T00:42:14.021Z,4.87
2022-08-28T00:44:40.979Z,5.40
2022-08-28T00:47:08.415Z,4.40
2022-08-28T00:49:41.070Z,5.33
2022-08-28T00:52:12.292Z,4.83
2022-08-28T00:54:58.661Z,4.77
2022-08-28T00:57:49.089Z,5.20
2022-08-28T01:00:32.394Z,5.10
2022-08-28T01:02:59.818Z,5.10
2022-08-28T01:05:28.794Z,4.20
2022-08-28T01:07:58.649Z,4.77
2022-08-28T01:10:28.254Z,5.10
2022-08-28T01:12:56.886Z,4.13
2022-08-28T01:15:28.318Z,4.80
2022-08-28T01:18:01.020Z,4.93
2022-08-28T01:20:33.802Z,4.47
2022-08-28T01:23:14.944Z,5.37
2022-08-28T01:25:42.430Z,4.60
2022-08-28T01:28:12.494Z,4.47
2022-08-28T01:30:42.632Z,4.83
2022-08-28T01:33:09.354Z,4.23
2022-08-28T01:35:42.513Z,4.40
2022-08-28T01:38:09.276Z,4.47
2022-08-28T01:40:39.531Z,4.87
2022-08-28T01:43:12.587Z,4.87
2022-08-28T01:45:42.329Z,4.43
2022-08-28T01:48:09.106Z,4.90
2022-08-28T01:50:36.840Z,4.10
2022-08-28T01:53:05.006Z,3.80
2022-08-28T01:55:36.714Z,4.40
2022-08-28T01:58:06.651Z,4.93
2022-08-28T02:00:33.701Z,4.40
2022-08-28T02:03:00.998Z,3.63
2022-08-28T02:05:31.054Z,4.13
2022-08-28T02:07:58.530Z,4.63
2022-08-28T02:10:26.976Z,4.07
2022-08-28T02:12:55.525Z,3.60
2022-08-28T02:15:28.433Z,4.60
2022-08-28T02:17:55.957Z,4.33
2022-08-28T02:20:23.883Z,4.23
2022-08-28T02:22:50.842Z,4.20
2022-08-28T02:25:18.747Z,4.37
2022-08-28T02:27:46.086Z,4.10
2022-08-28T02:30:15.217Z,3.50
2022-08-28T02:32:41.842Z,3.70
2022-08-28T02:35:13.487Z,3.73
2022-08-28T02:37:42.921Z,3.60
2022-08-28T02:40:11.426Z,4.07
2022-08-28T02:42:37.996Z,3.37
2022-08-28T02:45:05.322Z,3.47
2022-08-28T02:47:31.911Z,3.23
2022-08-28T02:49:58.496Z,3.67
2022-08-28T02:52:25.086Z,3.70
2022-08-28T02:54:51.906Z,3.53
2022-08-28T02:57:18.541Z,3.70
2022-08-28T02:59:45.467Z,3.33
2022-08-28T03:02:12.565Z,3.30
2022-08-28T03:04:39.413Z,3.53
2022-08-28T03:07:09.177Z,3.10
2022-08-28T03:09:37.838Z,2.63
2022-08-28T03:12:04.712Z,2.90
2022-08-28T03:14:31.273Z,3.30
2022-08-28T03:16:57.953Z,3.23
2022-08-28T03:19:24.630Z,3.17
2022-08-28T03:21:52.825Z,3.30
2022-08-28T03:24:20.360Z,3.00
2022-08-28T03:26:47.149Z,3.03
2022-08-28T03:29:13.867Z,2.70
2022-08-28T03:31:40.463Z,3.50
2022-08-28T03:34:07.105Z,3.47
2022-08-28T03:36:34.185Z,2.90
2022-08-28T03:39:03.468Z,2.77
2022-08-28T03:41:31.366Z,2.80
2022-08-28T03:43:59.941Z,2.40
2022-08-28T03:46:28.972Z,2.70
2022-08-28T03:48:55.910Z,2.67
2022-08-28T03:51:30.019Z,2.80
2022-08-28T03:53:58.088Z,2.30
2022-08-28T03:56:27.197Z,2.33
2022-08-28T03:58:57.371Z,2.40
2022-08-28T04:01:24.770Z,2.90
2022-08-28T04:03:51.425Z,2.40
2022-08-28T04:06:19.745Z,2.50
2022-08-28T04:08:47.466Z,2.60
2022-08-28T04:11:14.104Z,2.00
2022-08-28T04:13:41.695Z,2.23
2022-08-28T04:16:11.545Z,1.90
2022-08-28T04:18:40.425Z,2.80
2022-08-28T04:21:23.701Z,2.30
2022-08-28T04:23:50.634Z,2.57
2022-08-28T04:26:23.333Z,2.37
2022-08-28T04:28:50.949Z,2.00
2022-08-28T04:31:19.628Z,2.10
2022-08-28T04:34:04.933Z,2.10
2022-08-28T04:36:33.544Z,2.30
2022-08-28T04:39:00.754Z,3.20
2022-08-28T04:41:28.412Z,2.03
2022-08-28T04:43:57.173Z,2.83
2022-08-28T04:46:24.830Z,2.10
2022-08-28T04:48:52.116Z,2.77
2022-08-28T04:51:20.274Z,2.83
2022-08-28T04:53:47.097Z,2.33
2022-08-28T04:56:14.740Z,2.63
2022-08-28T04:58:43.094Z,2.33
2022-08-28T05:01:20.762Z,2.27
2022-08-28T05:03:48.879Z,2.10
2022-08-28T05:06:16.734Z,2.60
2022-08-28T05:08:43.984Z,2.33
2022-08-28T05:11:27.291Z,2.27
2022-08-28T05:14:00.689Z,2.73
2022-08-28T05:16:27.354Z,2.20
2022-08-28T05:18:53.949Z,2.27
2022-08-28T05:21:23.122Z,2.47
2022-08-28T05:23:53.498Z,1.93
2022-08-28T05:26:20.610Z,1.93
2022-08-28T05:28:47.878Z,2.30
2022-08-28T05:31:17.215Z,2.67
2022-08-28T05:33:45.156Z,2.17
2022-08-28T05:36:12.179Z,2.47
2022-08-28T05:38:39.403Z,2.23
2022-08-28T05:41:06.583Z,2.47
2022-08-28T05:43:33.174Z,2.50
2022-08-28T05:46:02.985Z,2.33
2022-08-28T05:48:32.945Z,2.73
2022-08-28T05:51:05.063Z,2.73
2022-08-28T05:53:31.867Z,2.60
2022-08-28T05:55:58.461Z,2.07
2022-08-28T05:58:31.732Z,2.70
2022-08-28T06:01:16.981Z,2.20
2022-08-28T06:03:46.218Z,2.40
2022-08-28T06:06:13.049Z,2.50
2022-08-28T06:08:58.073Z,2.57
2022-08-28T06:11:29.596Z,2.23
2022-08-28T06:14:02.862Z,2.20
2022-08-28T06:16:31.704Z,2.33
2022-08-28T06:18:58.974Z,2.83
2022-08-28T06:21:25.987Z,2.57
2022-08-28T06:23:52.671Z,2.30
2022-08-28T06:26:19.218Z,2.73
2022-08-28T06:28:45.981Z,2.60
2022-08-28T06:31:23.566Z,2.67
2022-08-28T06:33:54.022Z,2.53
2022-08-28T06:36:21.048Z,2.60
2022-08-28T06:38:47.630Z,2.50
2022-08-28T06:41:15.503Z,2.43
2022-08-28T06:43:42.863Z,2.53
2022-08-28T06:46:09.612Z,2.60
2022-08-28T06:48:36.275Z,2.77
2022-08-28T06:51:06.830Z,2.57
2022-08-28T06:53:33.539Z,2.00
2022-08-28T06:56:11.221Z,2.93
2022-08-28T06:58:42.735Z,2.70
2022-08-28T07:01:22.513Z,2.83
2022-08-28T07:03:51.404Z,2.83
2022-08-28T07:06:19.075Z,2.90
2022-08-28T07:08:45.950Z,2.33
2022-08-28T07:11:19.033Z,2.50
2022-08-28T07:13:46.191Z,2.83
2022-08-28T07:16:15.576Z,2.03
2022-08-28T07:18:42.184Z,2.87
2022-08-28T07:21:12.247Z,2.90
2022-08-28T07:23:42.115Z,2.77
2022-08-28T07:26:12.225Z,2.50
2022-08-28T07:28:38.809Z,2.60
2022-08-28T07:31:10.901Z,2.53
2022-08-28T07:33:39.072Z,2.43
2022-08-28T07:36:15.645Z,2.30
2022-08-28T07:38:56.533Z,2.40
2022-08-28T07:41:27.116Z,2.63
2022-08-28T07:44:12.473Z,2.93
2022-08-28T07:46:40.756Z,3.00
2022-08-28T07:49:09.140Z,2.97
2022-08-28T07:51:36.488Z,2.50
2022-08-28T07:54:03.912Z,2.70
2022-08-28T07:56:31.832Z,2.73
2022-08-28T07:59:00.339Z,2.60
2022-08-28T08:01:28.927Z,3.00
2022-08-28T08:04:01.466Z,2.97
2022-08-28T08:06:34.061Z,2.90
2022-08-28T08:09:01.801Z,2.70
2022-08-28T08:11:32.296Z,2.93
2022-08-28T08:14:05.718Z,2.70
2022-08-28T08:16:39.267Z,2.67
2022-08-28T08:19:09.586Z,2.43
2022-08-28T08:21:36.768Z,2.60
2022-08-28T08:24:03.609Z,2.77
2022-08-28T08:26:30.139Z,2.77
2022-08-28T08:28:57.127Z,2.97
2022-08-28T08:31:29.717Z,2.83
2022-08-28T08:33:59.028Z,2.90
2022-08-28T08:36:26.693Z,2.67
2022-08-28T08:38:59.496Z,2.50
2022-08-28T08:41:43.536Z,3.00
2022-08-28T08:44:33.294Z,3.17
2022-08-28T08:47:47.203Z,2.90
2022-08-28T08:50:26.974Z,2.63
2022-08-28T08:53:28.351Z,3.23
2022-08-28T08:55:57.822Z,2.83
2022-08-28T08:58:47.928Z,3.23
2022-08-28T09:01:21.762Z,3.03
2022-08-28T09:04:02.242Z,2.93
2022-08-28T09:06:49.879Z,2.50
2022-08-28T09:09:35.074Z,3.20
2022-08-28T09:12:13.262Z,2.77
2022-08-28T09:15:05.171Z,3.37
2022-08-28T09:17:35.873Z,2.63
2022-08-28T09:20:09.517Z,3.10
2022-08-28T09:22:37.649Z,2.50
2022-08-28T09:25:06.119Z,2.90
2022-08-28T09:27:37.902Z,3.40
2022-08-28T09:30:10.365Z,3.80
2022-08-28T09:32:39.028Z,2.97
2022-08-28T09:35:29.589Z,3.10
2022-08-28T09:38:15.855Z,2.83
2022-08-28T09:41:00.918Z,3.33
2022-08-28T09:43:28.335Z,2.90
2022-08-28T09:46:04.260Z,2.80
2022-08-28T09:48:43.430Z,3.40
2022-08-28T09:51:30.499Z,4.00
2022-08-28T09:54:02.432Z,3.47
2022-08-28T09:56:35.066Z,4.03
2022-08-28T09:59:14.952Z,4.03
2022-08-28T10:01:44.763Z,3.60
2022-08-28T10:04:23.915Z,3.47
2022-08-28T10:07:03.512Z,3.67
2022-08-28T10:09:54.826Z,3.63
2022-08-28T10:12:39.932Z,3.87
2022-08-28T10:15:19.514Z,4.20
2022-08-28T10:18:26.626Z,3.73
2022-08-28T10:21:01.133Z,3.70
2022-08-28T10:23:43.130Z,4.07
2022-08-28T10:26:39.705Z,3.50
2022-08-28T10:29:30.686Z,3.90
2022-08-28T10:31:59.886Z,4.13
2022-08-28T10:35:03.392Z,3.27
2022-08-28T10:37:30.568Z,3.60
2022-08-28T10:40:00.297Z,3.77
2022-08-28T10:42:36.342Z,3.87
2022-08-28T10:45:26.459Z,3.90
2022-08-28T10:47:58.814Z,5.13
2022-08-28T10:50:49.833Z,3.90
2022-08-28T10:53:29.771Z,4.17
2022-08-28T10:56:03.611Z,4.20
2022-08-28T10:58:33.871Z,3.77
2022-08-28T11:01:11.897Z,4.47
2022-08-28T11:03:52.070Z,4.57
2022-08-28T11:06:28.963Z,4.80
2022-08-28T11:08:59.312Z,4.20
2022-08-28T11:11:44.018Z,4.10
2022-08-28T11:14:23.154Z,3.80
2022-08-28T11:16:51.317Z,4.23
2022-08-28T11:20:03.228Z,4.80
2022-08-28T11:22:49.630Z,4.73
2022-08-28T11:25:26.316Z,5.20
2022-08-28T11:28:39.030Z,5.47
2022-08-28T11:31:05.644Z,4.30
2022-08-28T11:33:42.559Z,4.47
2022-08-28T11:36:32.551Z,4.97
2022-08-28T11:39:04.886Z,3.93
2022-08-28T11:41:35.182Z,4.30
2022-08-28T11:44:13.943Z,3.80
2022-08-28T11:46:42.238Z,4.80
2022-08-28T11:49:25.370Z,4.50
2022-08-28T11:52:22.988Z,3.90
2022-08-28T11:55:13.932Z,4.20
2022-08-28T11:57:46.790Z,4.40
2022-08-28T12:00:24.460Z,4.23
2022-08-28T12:02:58.381Z,4.30
2022-08-28T12:05:46.946Z,3.90
2022-08-28T12:08:46.605Z,3.97
2022-08-28T12:11:40.722Z,4.10
2022-08-28T12:14:09.997Z,4.07
2022-08-28T12:16:58.373Z,3.87
2022-08-28T12:19:43.049Z,4.20
2022-08-28T12:22:23.570Z,4.07
2022-08-28T12:24:58.281Z,3.53
2022-08-28T12:27:25.774Z,3.70
2022-08-28T12:29:58.214Z,4.63
2022-08-28T12:33:02.699Z,4.20
2022-08-28T12:35:30.253Z,3.97
2022-08-28T12:37:57.256Z,3.93
2022-08-28T12:40:53.215Z,5.23
2022-08-28T12:43:31.617Z,4.23
2022-08-28T12:46:03.998Z,4.57
2022-08-28T12:48:52.929Z,4.63
2022-08-28T12:51:25.225Z,3.80
2022-08-28T12:53:55.342Z,4.23
2022-08-28T12:56:25.305Z,3.70
2022-08-28T12:58:52.416Z,3.90
2022-08-28T13:01:32.316Z,3.63
2022-08-28T13:04:03.010Z,4.43
2022-08-28T13:06:32.765Z,4.27
2022-08-28T13:09:07.210Z,4.13
2022-08-28T13:11:40.107Z,4.20
2022-08-28T13:14:08.250Z,3.80
2022-08-28T13:16:47.596Z,3.87
2022-08-28T13:19:19.866Z,3.90
2022-08-28T13:21:46.341Z,3.80
2022-08-28T13:24:22.156Z,4.17
2022-08-28T13:26:59.120Z,3.53
2022-08-28T13:29:26.304Z,3.60
2022-08-28T13:31:59.626Z,4.17
2022-08-28T13:34:29.623Z,4.27
2022-08-28T13:36:59.838Z,3.50
2022-08-28T13:39:32.721Z,3.97
2022-08-28T13:42:12.416Z,3.70
2022-08-28T13:44:53.125Z,3.97
2022-08-28T13:47:19.713Z,3.87
2022-08-28T13:49:46.680Z,3.90
2022-08-28T13:52:13.678Z,4.10
2022-08-28T13:54:43.619Z,4.57
2022-08-28T13:57:13.389Z,4.07
2022-08-28T13:59:40.118Z,3.43
2022-08-28T14:02:29.825Z,3.40
2022-08-28T14:04:56.487Z,3.77
2022-08-28T14:07:23.492Z,4.33
2022-08-28T14:09:55.540Z,3.60
2022-08-28T14:12:23.173Z,4.30
2022-08-28T14:14:59.348Z,4.43
2022-08-28T14:17:25.971Z,4.10
2022-08-28T14:19:52.581Z,4.10
2022-08-28T14:22:19.133Z,4.20
2022-08-28T14:24:46.757Z,4.07
2022-08-28T14:27:13.507Z,4.20
2022-08-28T14:29:40.379Z,4.10
2022-08-28T14:32:09.073Z,4.00
2022-08-28T14:34:35.828Z,4.23
2022-08-28T14:37:02.367Z,3.87
2022-08-28T14:39:31.361Z,4.30
2022-08-28T14:41:59.393Z,4.57
2022-08-28T14:44:28.259Z,4.30
2022-08-28T14:46:56.910Z,4.40
2022-08-28T14:49:25.224Z,4.17
2022-08-28T14:51:54.040Z,4.33
2022-08-28T14:54:23.004Z,4.17
2022-08-28T14:56:50.669Z,4.40
2022-08-28T14:59:25.604Z,4.93
2022-08-28T15:01:55.151Z,4.27
2022-08-28T15:04:23.648Z,4.37
2022-08-28T15:06:55.520Z,4.30
2022-08-28T15:09:22.199Z,4.50
2022-08-28T15:11:48.749Z,4.30
2022-08-28T15:14:15.392Z,4.23
2022-08-28T15:16:45.590Z,3.70
2022-08-28T15:19:15.703Z,3.73
2022-08-28T15:21:48.621Z,4.30
2022-08-28T15:24:19.763Z,4.50
2022-08-28T15:26:46.840Z,4.20
2022-08-28T15:29:14.881Z,4.50
2022-08-28T15:31:45.827Z,4.33
2022-08-28T15:34:20.893Z,4.00
2022-08-28T15:36:55.346Z,4.53
2022-08-28T15:39:43.244Z,3.97
2022-08-28T15:42:11.347Z,4.60
2022-08-28T15:44:38.777Z,4.33
2022-08-28T15:47:07.797Z,4.40
2022-08-28T15:49:46.895Z,4.33
2022-08-28T15:52:20.709Z,3.93
2022-08-28T15:54:52.224Z,4.13
2022-08-28T15:57:19.598Z,4.20
2022-08-28T15:59:49.441Z,4.33
2022-08-28T16:02:18.830Z,4.10
2022-08-28T16:04:46.412Z,4.30
2022-08-28T16:07:15.772Z,4.27
2022-08-28T16:09:42.371Z,3.73
2022-08-28T16:12:09.079Z,3.90
2022-08-28T16:14:36.144Z,4.27
2022-08-28T16:17:05.472Z,4.50
2022-08-28T16:19:37.080Z,3.93
2022-08-28T16:22:03.767Z,3.97
2022-08-28T16:24:30.525Z,4.50
2022-08-28T16:26:57.098Z,4.20
2022-08-28T16:29:23.674Z,4.40
2022-08-28T16:31:52.344Z,4.23
2022-08-28T16:34:19.629Z,3.67
2022-08-28T16:36:48.225Z,3.87
2022-08-28T16:39:15.167Z,4.40
2022-08-28T16:41:43.046Z,4.20
2022-08-28T16:44:09.648Z,4.50
2022-08-28T16:46:36.278Z,3.67
2022-08-28T16:49:03.391Z,3.73
2022-08-28T16:51:30.167Z,4.10
2022-08-28T16:53:57.248Z,3.97
2022-08-28T16:56:24.891Z,4.20
2022-08-28T16:58:53.217Z,4.63
2022-08-28T17:01:24.244Z,4.40
2022-08-28T17:03:52.333Z,4.17
2022-08-28T17:06:25.328Z,4.40
2022-08-28T17:08:56.602Z,4.33
2022-08-28T17:11:26.302Z,4.70
2022-08-28T17:13:53.097Z,3.80
2022-08-28T17:16:21.120Z,3.70
2022-08-28T17:18:48.330Z,4.10
2022-08-28T17:21:39.498Z,4.00
2022-08-28T17:24:06.837Z,3.63
2022-08-28T17:26:33.542Z,4.03
2022-08-28T17:29:00.159Z,4.13
2022-08-28T17:31:26.817Z,4.20
2022-08-28T17:33:53.467Z,4.50
2022-08-28T17:36:32.586Z,4.03
2022-08-28T17:39:01.565Z,4.13
2022-08-28T17:41:28.227Z,4.13
2022-08-28T17:43:54.782Z,3.87
2022-08-28T17:46:21.350Z,4.20
2022-08-28T17:48:54.326Z,4.00
2022-08-28T17:51:40.453Z,4.13
2022-08-28T17:54:10.896Z,3.80
2022-08-28T17:56:37.907Z,4.23
2022-08-28T17:59:04.960Z,4.00
2022-08-28T18:01:31.629Z,3.73
2022-08-28T18:03:58.236Z,3.97
2022-08-28T18:06:25.008Z,4.20
2022-08-28T18:08:51.853Z,3.93
2022-08-28T18:11:19.212Z,4.13
2022-08-28T18:13:46.397Z,4.03
2022-08-28T18:16:13.246Z,3.90
2022-08-28T18:18:41.082Z,4.23
2022-08-28T18:21:13.297Z,3.63
2022-08-28T18:23:40.151Z,4.30
2022-08-28T18:26:08.431Z,4.27
2022-08-28T18:28:35.258Z,4.27
2022-08-28T18:31:02.673Z,3.93
2022-08-28T18:33:29.658Z,4.00
2022-08-28T18:35:56.433Z,4.30
2022-08-28T18:38:25.454Z,4.27
2022-08-28T18:40:52.093Z,4.20
2022-08-28T18:43:20.191Z,4.50
2022-08-28T18:45:47.160Z,4.40
2022-08-28T18:48:14.296Z,4.07
2022-08-28T18:50:45.723Z,4.00
2022-08-28T18:53:14.134Z,3.97
2022-08-28T18:55:40.932Z,4.60
2022-08-28T18:58:07.570Z,4.80
2022-08-28T19:00:37.221Z,4.90
2022-08-28T19:03:04.519Z,4.30
2022-08-28T19:05:31.753Z,4.73
2022-08-28T19:08:00.351Z,5.00
2022-08-28T19:10:33.805Z,4.57
2022-08-28T19:13:01.988Z,4.83
2022-08-28T19:15:29.509Z,3.83
2022-08-28T19:17:56.160Z,5.37
2022-08-28T19:20:23.226Z,5.40
2022-08-28T19:22:49.838Z,4.73
2022-08-28T19:25:23.327Z,4.80
2022-08-28T19:27:54.743Z,4.63
2022-08-28T19:30:26.432Z,5.10
2022-08-28T19:32:53.199Z,4.80
2022-08-28T19:35:19.845Z,4.53
2022-08-28T19:37:46.964Z,5.20
2022-08-28T19:40:13.913Z,4.50
2022-08-28T19:42:41.045Z,5.03
2022-08-28T19:45:09.687Z,4.90
2022-08-28T19:47:37.134Z,5.03
2022-08-28T19:50:05.092Z,5.10
2022-08-28T19:52:33.071Z,4.40
2022-08-28T19:55:01.010Z,5.10
2022-08-28T19:57:27.636Z,4.80
2022-08-28T19:59:54.183Z,4.60
2022-08-28T20:02:22.724Z,4.27
2022-08-28T20:04:49.434Z,5.10
2022-08-28T20:07:16.247Z,5.60
2022-08-28T20:09:42.878Z,4.77
2022-08-28T20:12:09.750Z,5.30
2022-08-28T20:14:38.733Z,4.80
2022-08-28T20:17:05.340Z,4.80
2022-08-28T20:19:33.356Z,4.90
2022-08-28T20:21:59.934Z,4.47
2022-08-28T20:24:26.584Z,4.77
2022-08-28T20:26:53.513Z,5.30
2022-08-28T20:29:20.178Z,5.30
2022-08-28T20:31:47.909Z,4.40
2022-08-28T20:34:19.687Z,4.53
2022-08-28T20:36:46.688Z,4.93
2022-08-28T20:39:14.710Z,4.53
2022-08-28T20:41:42.669Z,5.10
2022-08-28T20:44:12.611Z,5.00
2022-08-28T20:46:42.008Z,5.20
2022-08-28T20:49:11.053Z,4.73
2022-08-28T20:51:53.398Z,4.70
2022-08-28T20:54:21.471Z,5.00
2022-08-28T20:56:49.909Z,5.00
2022-08-28T20:59:16.994Z,5.50
2022-08-28T21:01:43.769Z,4.73
2022-08-28T21:04:10.543Z,4.67
2022-08-28T21:06:38.246Z,4.53
2022-08-28T21:09:04.826Z,4.57
2022-08-28T21:11:31.536Z,4.60
2022-08-28T21:13:58.127Z,4.50
2022-08-28T21:16:24.767Z,4.20
2022-08-28T21:19:14.834Z,4.83
2022-08-28T21:21:38.413Z,4.33
2022-08-28T21:24:07.365Z,4.97
2022-08-28T21:26:34.090Z,4.33
2022-08-28T21:29:00.906Z,4.33
2022-08-28T21:31:27.582Z,4.73
2022-08-28T21:33:54.112Z,5.23
2022-08-28T21:36:20.704Z,4.27
2022-08-28T21:38:47.522Z,4.80
2022-08-28T21:41:15.094Z,4.93
2022-08-28T21:43:43.436Z,4.80
2022-08-28T21:46:11.237Z,4.60
2022-08-28T21:48:37.877Z,4.77
2022-08-28T21:51:13.101Z,4.50
2022-08-28T21:53:40.375Z,4.70
2022-08-28T21:56:08.266Z,4.40
2022-08-28T21:58:36.354Z,4.50
2022-08-28T22:01:03.075Z,4.60
2022-08-28T22:03:30.040Z,4.30
2022-08-28T22:05:57.702Z,4.13
2022-08-28T22:08:28.414Z,4.57
2022-08-28T22:10:55.410Z,4.60
2022-08-28T22:13:21.999Z,4.23
2022-08-28T22:15:48.579Z,4.53
2022-08-28T22:18:16.138Z,4.07
2022-08-28T22:21:02.608Z,4.70
2022-08-28T22:23:33.595Z,4.20
2022-08-28T22:26:05.671Z,4.67
2022-08-28T22:28:32.553Z,4.40
2022-08-28T22:30:59.448Z,4.27
2022-08-28T22:33:26.412Z,4.30
2022-08-28T22:35:53.151Z,4.83
2022-08-28T22:38:22.022Z,4.73
2022-08-28T22:40:49.707Z,4.20
2022-08-28T22:43:17.265Z,4.47
2022-08-28T22:45:48.903Z,4.47
2022-08-28T22:48:17.349Z,4.33
2022-08-28T22:50:46.779Z,4.53
2022-08-28T22:53:15.385Z,4.67
2022-08-28T22:55:43.637Z,4.57
2022-08-28T22:58:11.448Z,4.20
2022-08-28T23:00:40.439Z,4.20
2022-08-28T23:03:07.660Z,4.03
2022-08-28T23:05:34.746Z,4.17
2022-08-28T23:08:01.355Z,4.03
2022-08-28T23:10:48.292Z,4.00
2022-08-28T23:13:15.181Z,4.20
2022-08-28T23:15:43.506Z,4.30
2022-08-28T23:18:11.051Z,3.83
2022-08-28T23:20:39.375Z,3.77
2022-08-28T23:23:06.639Z,3.80
2022-08-28T23:25:33.706Z,4.60
2022-08-28T23:28:05.861Z,4.00
2022-08-28T23:30:33.322Z,3.80
2022-08-28T23:32:59.879Z,3.47
2022-08-28T23:35:26.611Z,3.90
2022-08-28T23:37:53.247Z,3.73
2022-08-28T23:40:22.536Z,3.70
2022-08-28T23:42:49.163Z,3.83
2022-08-28T23:45:19.399Z,3.67
2022-08-28T23:47:46.973Z,3.40
2022-08-28T23:50:17.935Z,3.33
2022-08-28T23:52:44.716Z,3.40
2022-08-28T23:55:12.794Z,3.70
2022-08-28T23:57:40.146Z,3.37
